Time;durP1;ratioP1;P1;durP2;ratioP2;P2;SDS_P1;SDS_P2;PMS_P1;PMS_P2;Temp;Humidity;BMP_temperature;BMP_pressure;BME280_temperature;BME280_humidity;BME280_pressure;Samples;Min_cycle;Max_cycle;Signal;HPM_P1;HPM_P2
2023/01/12 01:03:56;;;;;;;19.90;8.20;;;;;;;-7.21;100.00;102052.59;105581;1291;600261;-80
2023/01/12 01:06:43;;;;;;;20.60;8.40;;;;;;;-7.18;100.00;102052.17;108415;1266;61405;-80
2023/01/12 01:09:31;;;;;;;40.20;12.30;;;;;;;-7.13;100.00;102056.20;108333;1267;61348;-80
2023/01/12 01:12:18;;;;;;;25.80;9.90;;;;;;;-7.06;100.00;102054.22;108352;1266;74400;-80
2023/01/12 01:15:06;;;;;;;22.10;7.40;;;;;;;-6.98;100.00;102052.36;108449;1271;69012;-80
2023/01/12 01:17:54;;;;;;;21.90;7.40;;;;;;;-6.89;100.00;102054.59;108289;1266;158080;-79
2023/01/12 01:20:45;;;;;;;15.70;6.10;;;;;;;-6.82;100.00;102054.73;108567;1265;59567;-80
2023/01/12 01:23:34;;;;;;;19.00;7.50;;;;;;;-6.77;100.00;102060.33;108590;1264;62553;-79
2023/01/12 01:26:22;;;;;;;18.90;6.30;;;;;;;-6.72;100.00;102054.96;108475;1264;74378;-80
2023/01/12 01:29:09;;;;;;;22.80;6.50;;;;;;;-6.67;100.00;102054.57;108572;1264;71208;-80
2023/01/12 01:31:57;;;;;;;16.40;5.80;;;;;;;-6.61;100.00;102057.08;108520;1267;74820;-80
2023/01/12 01:34:45;;;;;;;15.60;5.70;;;;;;;-6.55;100.00;102068.06;108491;1264;64467;-79
2023/01/12 01:37:33;;;;;;;18.00;6.60;;;;;;;-6.50;100.00;102071.77;108549;1264;62669;-81
2023/01/12 01:40:20;;;;;;;18.60;7.20;;;;;;;-6.48;100.00;102066.63;108573;1266;75383;-80
2023/01/12 01:43:12;;;;;;;20.20;6.80;;;;;;;-6.46;100.00;102068.82;108572;1263;69910;-80
2023/01/12 01:46:08;;;;;;;19.30;7.90;;;;;;;-6.44;100.00;102068.27;108472;1266;74931;-80
2023/01/12 01:48:56;;;;;;;18.20;6.70;;;;;;;-6.40;100.00;102069.54;108564;1264;62487;-80
2023/01/12 01:51:44;;;;;;;15.20;7.10;;;;;;;-6.38;100.00;102065.23;108555;1264;61379;-80
2023/01/12 01:54:35;;;;;;;19.00;7.10;;;;;;;-6.36;100.00;102061.52;108508;1266;75028;-79
2023/01/12 01:57:23;;;;;;;19.80;6.40;;;;;;;-6.34;100.00;102052.86;108478;1265;69850;-80
2023/01/12 02:00:11;;;;;;;15.00;6.70;;;;;;;-6.33;100.00;102058.25;108493;1268;74986;-80
2023/01/12 02:02:58;;;;;;;13.20;5.20;;;;;;;-6.31;100.00;102053.30;108549;1266;61938;-80
2023/01/12 02:05:47;;;;;;;21.10;7.40;;;;;;;-6.28;100.00;102044.91;108464;1264;62761;-80
2023/01/12 02:08:48;;;;;;;20.80;7.60;;;;;;;-6.26;100.00;102050.27;108565;1264;75070;-80
2023/01/12 02:18:10;;;;;;;10.90;5.90;;;;;;;-6.22;100.00;102056.27;108496;1264;61945;-80
2023/01/12 02:21:03;;;;;;;20.80;6.90;;;;;;;-6.21;100.00;102051.59;108543;1263;61279;-80
2023/01/12 02:24:06;;;;;;;21.10;6.40;;;;;;;-6.21;100.00;102050.51;108516;1267;75109;-81
2023/01/12 02:27:12;;;;;;;11.90;6.30;;;;;;;-6.20;100.00;102048.80;108447;1269;70185;-80
2023/01/12 02:30:37;;;;;;;7.30;4.20;;;;;;;-6.18;100.00;102037.86;108494;1266;73660;-80
2023/01/12 02:33:40;;;;;;;16.70;5.60;;;;;;;-6.16;100.00;102034.80;108423;1267;62831;-80
2023/01/12 02:36:36;;;;;;;8.80;4.60;;;;;;;-6.15;100.00;102033.70;108555;1263;62552;-80
2023/01/12 02:39:28;;;;;;;9.80;5.30;;;;;;;-6.14;100.00;102031.00;108541;1264;74387;-81
2023/01/12 02:42:48;;;;;;;11.90;4.40;;;;;;;-6.14;100.00;102032.02;108542;1263;70951;-80
2023/01/12 02:45:41;;;;;;;16.30;5.60;;;;;;;-6.08;100.00;102024.25;108525;1263;73618;-79
2023/01/12 02:48:33;;;;;;;21.90;8.30;;;;;;;-6.04;100.00;102025.48;108442;1267;61627;-79
2023/01/12 02:51:30;;;;;;;25.50;7.60;;;;;;;-6.01;100.00;102025.58;108546;1269;62265;-79
2023/01/12 02:54:19;;;;;;;28.90;7.80;;;;;;;-6.00;100.00;102025.52;108444;1263;73957;-80
2023/01/12 02:57:07;;;;;;;22.90;8.10;;;;;;;-5.98;100.00;102021.25;108473;1264;69742;-81
2023/01/12 02:59:54;;;;;;;34.00;9.40;;;;;;;-5.96;100.00;102013.61;108488;1264;73946;-80
2023/01/12 03:02:42;;;;;;;23.70;8.10;;;;;;;-5.94;100.00;102007.05;108397;1266;60002;-80
2023/01/12 03:05:29;;;;;;;39.90;9.30;;;;;;;-5.91;100.00;102004.48;108690;1260;60995;-79
2023/01/12 03:08:20;;;;;;;24.20;7.30;;;;;;;-5.88;100.00;101997.10;108688;1263;75236;-80
2023/01/12 03:11:14;;;;;;;33.50;8.10;;;;;;;-5.82;100.00;101998.23;108914;1257;70823;-81
2023/01/12 03:14:02;;;;;;;24.50;7.10;;;;;;;-5.84;100.00;101998.72;108886;1255;74846;-80
2023/01/12 03:16:49;;;;;;;22.80;6.80;;;;;;;-5.83;100.00;101998.45;108888;1256;60770;-80
2023/01/12 03:19:37;;;;;;;31.20;8.20;;;;;;;-5.87;100.00;101997.53;108902;1256;61158;-80
2023/01/12 03:22:24;;;;;;;19.50;4.80;;;;;;;-5.86;100.00;101998.83;108868;1255;75211;-80
2023/01/12 03:25:12;;;;;;;14.10;4.30;;;;;;;-5.87;100.00;101995.91;108962;1254;69979;-81
2023/01/12 03:28:01;;;;;;;10.90;4.50;;;;;;;-5.88;100.00;101995.88;108962;1256;73634;-79
2023/01/12 03:31:09;;;;;;;22.50;6.80;;;;;;;-5.91;100.00;101991.31;108968;1256;60524;-80
2023/01/12 03:33:57;;;;;;;10.20;3.50;;;;;;;-5.92;100.00;101980.92;108937;1256;62288;-80
2023/01/12 03:36:47;;;;;;;7.30;2.80;;;;;;;-5.90;100.00;101973.64;108950;1257;74966;-80
2023/01/12 03:39:49;;;;;;;12.50;4.30;;;;;;;-5.89;100.00;101969.64;108898;1257;68615;-80
2023/01/12 03:43:14;;;;;;;11.60;3.70;;;;;;;-5.91;100.00;101962.06;108945;1257;73548;-80
2023/01/12 03:46:07;;;;;;;4.90;2.50;;;;;;;-5.93;100.00;101962.90;108724;1256;62739;-80
2023/01/12 03:49:01;;;;;;;7.50;3.60;;;;;;;-5.90;100.00;101958.26;108945;1256;62289;-80
2023/01/12 03:51:49;;;;;;;7.40;3.10;;;;;;;-5.89;100.00;101960.83;108896;1257;73343;-80
2023/01/12 03:54:37;;;;;;;7.30;2.50;;;;;;;-5.87;100.00;101969.90;108945;1256;70958;-80
2023/01/12 03:57:24;;;;;;;11.60;3.20;;;;;;;-5.88;100.00;101968.70;108833;1257;73951;-80
2023/01/12 07:05:08;;;;;;;25.10;9.90;;;;;;;-5.66;100.00;101923.98;105685;1291;600984;-80
2023/01/12 07:07:58;;;;;;;29.70;12.70;;;;;;;-5.57;100.00;101931.91;108333;1267;64042;-80
2023/01/12 07:10:45;;;;;;;26.40;11.80;;;;;;;-5.49;100.00;101937.73;108362;1266;61011;-80
2023/01/12 07:13:33;;;;;;;21.20;9.80;;;;;;;-5.41;100.00;101942.31;108419;1266;73476;-80
2023/01/12 07:16:20;;;;;;;17.40;7.10;;;;;;;-5.33;100.00;101946.95;108377;1267;69584;-80
2023/01/12 07:19:08;;;;;;;23.10;9.50;;;;;;;-5.27;100.00;101940.85;108316;1265;178239;-80
2023/01/12 07:21:55;;;;;;;19.60;10.00;;;;;;;-5.18;100.00;101947.72;108685;1260;59842;-79
2023/01/12 07:24:43;;;;;;;21.00;6.30;;;;;;;-5.08;100.00;101948.27;108736;1260;61128;-80
2023/01/12 07:27:30;;;;;;;12.70;5.60;;;;;;;-4.98;100.00;101948.39;108767;1259;74360;-80
2023/01/12 07:30:20;;;;;;;13.10;6.70;;;;;;;-4.90;100.00;101937.54;108754;1260;69838;-80
2023/01/12 07:33:09;;;;;;;19.00;7.10;;;;;;;-4.86;100.00;101934.40;108743;1260;75106;-79
2023/01/12 07:35:57;;;;;;;15.10;6.10;;;;;;;-4.83;100.00;101934.18;108701;1261;59384;-81
2023/01/12 07:38:45;;;;;;;11.00;4.90;;;;;;;-4.80;100.00;101927.67;108778;1261;61446;-80
2023/01/12 07:44:42;;;;;;;14.20;6.20;;;;;;;-4.69;100.00;101932.86;109236;1251;70699;-81
2023/01/12 07:47:29;;;;;;;18.10;7.80;;;;;;;-4.66;100.00;101927.61;109340;1253;72902;-81
2023/01/12 07:50:17;;;;;;;18.40;6.80;;;;;;;-4.62;100.00;101923.14;109340;1251;59925;-80
2023/01/12 07:53:04;;;;;;;11.70;6.50;;;;;;;-4.58;100.00;101927.77;109302;1253;61297;-81
2023/01/12 07:55:52;;;;;;;16.60;6.40;;;;;;;-4.54;100.00;101925.81;109363;1252;75343;-82
2023/01/12 07:58:39;;;;;;;14.10;6.50;;;;;;;-4.52;100.00;101930.75;109375;1251;69647;-81
2023/01/12 08:01:27;;;;;;;20.10;7.80;;;;;;;-4.52;100.00;101930.77;109319;1253;73948;-81
2023/01/12 08:04:14;;;;;;;18.20;7.70;;;;;;;-4.53;100.00;101931.55;109341;1251;60696;-81
2023/01/12 08:07:02;;;;;;;15.20;7.70;;;;;;;-4.50;100.00;101931.88;109302;1252;62261;-81
2023/01/12 08:09:49;;;;;;;16.30;8.20;;;;;;;-4.45;100.00;101931.39;109294;1252;74524;-81
2023/01/12 08:12:37;;;;;;;30.70;10.40;;;;;;;-4.42;100.00;101932.16;109239;1254;70676;-81
2023/01/12 08:15:24;;;;;;;18.80;9.20;;;;;;;-4.41;100.00;101922.27;109337;1253;73641;-80
2023/01/12 08:18:17;;;;;;;20.90;8.70;;;;;;;-4.41;100.00;101922.98;109305;1251;62109;-81
2023/01/12 08:21:08;;;;;;;26.30;10.10;;;;;;;-4.31;100.00;101921.00;109136;1252;61939;-81
2023/01/12 08:23:57;;;;;;;26.30;9.80;;;;;;;-4.26;100.00;101919.61;109281;1253;73992;-80
2023/01/12 08:26:45;;;;;;;38.80;16.30;;;;;;;-4.27;100.00;101922.17;109277;1251;71660;-81
2023/01/12 08:29:38;;;;;;;28.30;12.40;;;;;;;-4.25;100.00;101920.90;109249;1253;74746;-81
2023/01/12 08:32:26;;;;;;;18.10;8.10;;;;;;;-4.23;100.00;101917.42;109241;1253;63169;-82
2023/01/12 08:35:17;;;;;;;28.20;14.90;;;;;;;-4.20;100.00;101915.14;109289;1251;60775;-82
2023/01/12 08:38:04;;;;;;;28.90;8.70;;;;;;;-4.19;100.00;101914.67;109187;1252;75114;-81
2023/01/12 08:44:07;;;;;;;21.70;10.50;;;;;;;-4.16;100.00;101903.01;109311;1251;72911;-80
2023/01/12 08:46:55;;;;;;;14.70;6.70;;;;;;;-4.11;100.00;101897.23;109323;1251;63055;-80
2023/01/12 08:49:44;;;;;;;19.20;7.60;;;;;;;-4.09;100.00;101901.81;109332;1252;61084;-81
2023/01/12 08:52:32;;;;;;;10.90;5.70;;;;;;;-4.12;100.00;101904.38;109261;1253;75506;-81
2023/01/12 08:55:19;;;;;;;9.70;5.10;;;;;;;-4.13;100.00;101901.83;109209;1252;71185;-81
2023/01/12 08:58:07;;;;;;;14.80;5.30;;;;;;;-4.12;100.00;101900.27;109340;1253;73524;-81
2023/01/12 09:00:54;;;;;;;11.60;5.60;;;;;;;-4.11;100.00;101904.98;109200;1253;61755;-81
2023/01/12 09:03:43;;;;;;;13.30;6.20;;;;;;;-4.07;100.00;101901.44;109305;1254;60123;-81
2023/01/12 09:06:34;;;;;;;11.00;5.30;;;;;;;-4.04;100.00;101905.91;109253;1253;72974;-80
2023/01/12 09:09:21;;;;;;;10.80;4.90;;;;;;;-4.02;100.00;101907.15;109262;1251;70373;-81
2023/01/12 09:12:09;;;;;;;19.50;6.70;;;;;;;-3.97;100.00;101902.23;109267;1251;73814;-81
2023/01/12 09:14:56;;;;;;;14.70;5.50;;;;;;;-3.89;100.00;101900.02;109321;1251;64104;-81
2023/01/12 09:17:44;;;;;;;16.10;6.50;;;;;;;-3.83;100.00;101893.73;109331;1253;62495;-80
2023/01/12 09:20:33;;;;;;;18.00;7.30;;;;;;;-3.78;100.00;101888.64;109320;1251;73158;-82
2023/01/12 09:23:20;;;;;;;18.60;7.00;;;;;;;-3.74;100.00;101883.27;109277;1252;70587;-81
2023/01/12 09:26:13;;;;;;;14.60;6.40;;;;;;;-3.72;100.00;101878.58;109340;1251;74968;-81
2023/01/12 09:29:01;;;;;;;31.50;8.80;;;;;;;-3.70;100.00;101869.11;109324;1251;62486;-81
2023/01/12 09:31:48;;;;;;;12.50;5.40;;;;;;;-3.70;100.00;101862.71;109275;1252;62098;-80
2023/01/12 09:34:36;;;;;;;18.00;8.20;;;;;;;-3.71;100.00;101865.11;109241;1253;74737;-81
2023/01/12 09:37:24;;;;;;;18.30;7.50;;;;;;;-3.71;100.00;101868.18;109321;1253;69283;-81
2023/01/12 09:40:13;;;;;;;19.70;6.90;;;;;;;-3.70;100.00;101862.77;109276;1251;73902;-82
2023/01/12 09:49:45;;;;;;;14.10;6.20;;;;;;;-3.64;100.00;101854.85;109249;1251;73328;-80
2023/01/12 09:52:35;;;;;;;19.60;7.90;;;;;;;-3.69;100.00;101855.45;109210;1253;71110;-81
2023/01/12 09:55:24;;;;;;;14.80;6.30;;;;;;;-3.71;100.00;101854.09;109273;1253;72612;-81
2023/01/12 13:07:41;;;;;;;28.20;10.00;;;;;;;-4.54;100.00;101787.59;105638;1291;600936;-79
2023/01/12 13:10:29;;;;;;;25.60;10.50;;;;;;;-4.54;100.00;101787.79;108249;1268;62327;-79
2023/01/12 13:13:36;;;;;;;23.60;10.10;;;;;;;-4.50;100.00;101789.91;108234;1267;61285;-78
2023/01/12 13:16:44;;;;;;;21.30;9.10;;;;;;;-4.47;100.00;101788.39;108214;1268;74319;-78
2023/01/12 13:19:35;;;;;;;19.80;8.70;;;;;;;-4.41;100.00;101789.91;108174;1268;69859;-81
2023/01/12 13:22:28;;;;;;;20.80;9.70;;;;;;;-4.33;100.00;101793.19;108257;1266;148235;-79
2023/01/12 13:25:16;;;;;;;20.10;8.80;;;;;;;-4.32;100.00;101790.56;108381;1267;62565;-78
2023/01/12 13:28:03;;;;;;;22.00;7.60;;;;;;;-4.29;100.00;101780.55;108419;1267;61292;-79
2023/01/12 13:30:52;;;;;;;17.60;8.30;;;;;;;-4.29;100.00;101779.38;108344;1265;73716;-81
2023/01/12 13:33:39;;;;;;;23.80;9.60;;;;;;;-4.29;100.00;101776.91;108403;1266;69638;-80
2023/01/12 13:36:30;;;;;;;19.90;8.80;;;;;;;-4.30;100.00;101776.79;108349;1265;74739;-79
2023/01/12 13:39:17;;;;;;;23.70;10.10;;;;;;;-4.34;100.00;101773.92;108351;1266;61680;-82
2023/01/12 13:45:24;;;;;;;23.60;9.90;;;;;;;-4.35;100.00;101779.33;108299;1266;75856;-81
2023/01/12 13:48:12;;;;;;;20.50;8.30;;;;;;;-4.37;100.00;101777.42;108383;1266;69867;-82
2023/01/12 13:51:06;;;;;;;18.30;7.90;;;;;;;-4.40;100.00;101778.39;108389;1265;74789;-81
2023/01/12 13:53:58;;;;;;;19.10;9.00;;;;;;;-4.41;100.00;101780.11;108380;1265;60680;-81
2023/01/12 13:56:55;;;;;;;15.40;6.80;;;;;;;-4.43;100.00;101789.34;108406;1267;60426;-81
2023/01/12 14:00:07;;;;;;;25.00;9.00;;;;;;;-4.46;100.00;101788.26;108508;1265;75157;-82
2023/01/12 14:03:02;;;;;;;20.50;8.90;;;;;;;-4.48;100.00;101794.10;108563;1263;71156;-79
2023/01/12 14:06:00;;;;;;;21.80;9.30;;;;;;;-4.49;100.00;101795.83;108343;1265;75083;-78
2023/01/12 14:08:50;;;;;;;19.50;8.90;;;;;;;-4.51;100.00;101801.35;108429;1265;60769;-78
2023/01/12 14:12:16;;;;;;;24.40;9.80;;;;;;;-4.52;100.00;101803.77;108468;1263;62607;-79
2023/01/12 14:18:44;;;;;;;24.50;9.60;;;;;;;-4.51;100.00;101803.20;108197;1265;68970;-81
2023/01/12 14:21:36;;;;;;;27.80;11.30;;;;;;;-4.54;100.00;101802.66;108446;1266;74685;-81
2023/01/12 14:24:24;;;;;;;36.20;11.10;;;;;;;-4.52;100.00;101803.60;108399;1266;58392;-79
2023/01/12 14:27:22;;;;;;;27.10;10.90;;;;;;;-4.56;100.00;101799.14;108404;1264;62546;-79
2023/01/12 14:30:12;;;;;;;20.90;9.90;;;;;;;-4.57;100.00;101793.42;108478;1266;75245;-80
2023/01/12 14:33:00;;;;;;;36.90;14.40;;;;;;;-4.58;100.00;101797.78;108634;1263;71130;-79
2023/01/12 14:35:49;;;;;;;42.80;16.60;;;;;;;-4.58;100.00;101796.16;108516;1264;74503;-79
2023/01/12 14:38:39;;;;;;;64.20;20.80;;;;;;;-4.57;100.00;101794.46;108439;1264;61885;-80
2023/01/12 14:48:24;;;;;;;95.30;35.10;;;;;;;-4.57;100.00;101793.20;108856;1260;69457;-79
2023/01/12 14:51:22;;;;;;;42.10;15.10;;;;;;;-4.58;100.00;101788.52;108732;1260;75546;-79
2023/01/12 14:54:10;;;;;;;46.60;14.10;;;;;;;-4.58;100.00;101787.63;108823;1259;60269;-80
2023/01/12 14:57:02;;;;;;;36.40;14.30;;;;;;;-4.57;100.00;101789.15;108817;1263;61199;-79
2023/01/12 14:59:50;;;;;;;43.40;15.60;;;;;;;-4.58;100.00;101791.01;108750;1259;74680;-78
2023/01/12 15:02:39;;;;;;;42.20;14.80;;;;;;;-4.56;100.00;101789.80;108764;1260;69495;-80
2023/01/12 15:05:27;;;;;;;34.30;12.40;;;;;;;-4.56;100.00;101785.96;108758;1260;73598;-79
2023/01/12 15:08:29;;;;;;;36.40;12.10;;;;;;;-4.49;100.00;101780.19;108758;1258;59305;-80
2023/01/12 15:11:27;;;;;;;87.00;25.30;;;;;;;-4.51;100.00;101782.16;108806;1259;62805;-79
2023/01/12 15:14:26;;;;;;;43.20;18.50;;;;;;;-4.55;100.00;101786.11;108712;1260;75423;-79
2023/01/12 15:26:34;;;;;;;27.10;10.60;;;;;;;-4.62;100.00;101783.36;108796;1260;61243;-79
2023/01/12 15:29:21;;;;;;;31.00;10.30;;;;;;;-4.63;100.00;101787.22;108726;1259;75354;-79
2023/01/12 15:32:32;;;;;;;24.70;11.30;;;;;;;-4.64;100.00;101786.99;108766;1258;69757;-79
2023/01/12 15:35:43;;;;;;;77.30;23.80;;;;;;;-4.65;100.00;101786.55;108734;1260;72503;-80
2023/01/12 15:38:30;;;;;;;65.70;21.00;;;;;;;-4.68;100.00;101782.21;108763;1260;61698;-79
2023/01/12 15:42:14;;;;;;;53.70;17.00;;;;;;;-4.71;100.00;101783.33;108764;1259;62465;-79
2023/01/12 15:44:30;;;;;;;50.90;18.10;;;;;;;-4.71;100.00;101780.20;108821;1259;73175;-78
2023/01/12 15:47:18;;;;;;;38.80;15.10;;;;;;;-4.73;100.00;101779.52;108786;1259;71034;-79
2023/01/12 15:50:06;;;;;;;38.50;12.30;;;;;;;-4.72;100.00;101778.35;108765;1260;73491;-79
2023/01/12 15:52:55;;;;;;;111.00;28.20;;;;;;;-4.68;100.00;101779.67;108773;1260;60387;-78
2023/01/12 15:55:42;;;;;;;139.90;42.50;;;;;;;-4.65;100.00;101774.26;108765;1260;62237;-79
2023/01/12 15:58:30;;;;;;;73.10;30.10;;;;;;;-4.65;100.00;101773.05;109246;1253;74513;-79
2023/01/12 19:05:33;;;;;;;36.70;14.80;;;;;;;-5.48;100.00;101767.30;105566;1293;600070;-80
2023/01/12 19:11:27;;;;;;;70.80;23.20;;;;;;;-5.30;100.00;101764.02;108289;1267;60355;-80
2023/01/12 19:17:26;;;;;;;52.80;17.40;;;;;;;-5.12;100.00;101753.00;108461;1267;68659;-81
2023/01/12 19:20:14;;;;;;;47.10;16.60;;;;;;;-5.09;100.00;101750.00;108253;1265;183122;-79
2023/01/12 19:29:15;;;;;;;49.70;21.20;;;;;;;-4.92;100.00;101753.16;108409;1264;73760;-76
2023/01/12 19:32:03;;;;;;;41.80;18.30;;;;;;;-4.90;100.00;101761.38;109181;1254;70863;-76
2023/01/12 19:34:50;;;;;;;31.50;15.50;;;;;;;-4.88;100.00;101760.31;109041;1254;74839;-76
2023/01/12 19:37:46;;;;;;;34.60;15.30;;;;;;;-4.85;100.00;101762.63;109179;1254;61001;-76
2023/01/12 19:41:05;;;;;;;34.70;13.70;;;;;;;-4.82;100.00;101762.92;109197;1252;61174;-77
2023/01/12 19:43:45;;;;;;;35.80;13.10;;;;;;;-4.77;100.00;101764.67;109282;1253;75846;-76
2023/01/12 19:46:33;;;;;;;31.50;13.50;;;;;;;-4.77;100.00;101763.14;109207;1253;71075;-76
2023/01/12 19:49:21;;;;;;;29.70;13.50;;;;;;;-4.77;100.00;101764.59;109243;1251;74814;-76
2023/01/12 19:52:09;;;;;;;27.00;11.90;;;;;;;-4.77;100.00;101762.95;109062;1251;61643;-76
2023/01/12 19:54:57;;;;;;;20.90;8.90;;;;;;;-4.76;100.00;101761.58;109304;1251;62762;-76
2023/01/12 19:57:44;;;;;;;24.30;10.40;;;;;;;-4.72;100.00;101763.91;109316;1251;75135;-76
2023/01/12 20:00:32;;;;;;;24.30;11.30;;;;;;;-4.70;100.00;101763.67;109344;1251;70630;-76
2023/01/12 20:03:22;;;;;;;25.50;10.40;;;;;;;-4.67;100.00;101756.70;109311;1251;74707;-76
2023/01/12 20:06:10;;;;;;;26.30;10.60;;;;;;;-4.67;100.00;101750.47;109298;1251;61696;-76
2023/01/12 20:08:57;;;;;;;28.70;11.10;;;;;;;-4.68;100.00;101754.60;109336;1252;62609;-76
2023/01/12 20:11:51;;;;;;;20.40;9.20;;;;;;;-4.67;100.00;101752.73;109292;1253;75098;-76
2023/01/12 20:14:38;;;;;;;20.40;9.60;;;;;;;-4.65;100.00;101754.14;109243;1254;69911;-76
2023/01/12 20:17:26;;;;;;;23.80;10.00;;;;;;;-4.62;100.00;101750.98;108911;1253;73795;-79
2023/01/12 20:20:14;;;;;;;21.90;10.40;;;;;;;-4.61;100.00;101749.89;109214;1252;61746;-79
2023/01/12 20:23:01;;;;;;;23.10;10.20;;;;;;;-4.62;100.00;101746.75;109251;1254;60335;-81
2023/01/12 20:25:49;;;;;;;22.80;10.90;;;;;;;-4.61;100.00;101745.20;109291;1253;75327;-79
2023/01/12 20:28:37;;;;;;;22.10;9.80;;;;;;;-4.58;100.00;101746.73;109265;1253;70849;-79
2023/01/12 20:31:24;;;;;;;29.30;10.80;;;;;;;-4.56;100.00;101744.05;109371;1252;74984;-79
2023/01/12 20:34:12;;;;;;;27.70;11.20;;;;;;;-4.56;100.00;101745.48;109262;1254;59130;-79
2023/01/12 20:37:01;;;;;;;26.10;12.60;;;;;;;-4.55;100.00;101739.69;109195;1253;60330;-79
2023/01/12 20:39:51;;;;;;;27.10;11.70;;;;;;;-4.56;100.00;101737.45;109189;1252;75026;-79
2023/01/12 20:42:40;;;;;;;21.80;11.30;;;;;;;-4.55;100.00;101736.98;109217;1253;71260;-79
2023/01/12 20:45:27;;;;;;;20.70;9.40;;;;;;;-4.54;100.00;101730.00;109229;1251;74849;-79
2023/01/12 20:48:15;;;;;;;26.10;11.90;;;;;;;-4.54;100.00;101723.58;109176;1256;60143;-80
2023/01/12 20:51:06;;;;;;;25.50;11.50;;;;;;;-4.53;100.00;101721.37;109200;1255;61131;-80
2023/01/12 20:53:54;;;;;;;26.60;10.50;;;;;;;-4.53;100.00;101717.96;109043;1257;72986;-80
2023/01/12 20:56:41;;;;;;;24.10;11.10;;;;;;;-4.53;100.00;101713.54;109210;1257;70888;-80
2023/01/12 20:59:29;;;;;;;22.30;9.40;;;;;;;-4.56;100.00;101710.54;109275;1253;72749;-80
2023/01/12 21:02:22;;;;;;;26.00;10.70;;;;;;;-4.57;100.00;101711.27;108988;1259;62020;-81
2023/01/12 21:05:09;;;;;;;27.70;11.40;;;;;;;-4.56;100.00;101717.90;108846;1256;62773;-81
2023/01/12 21:07:57;;;;;;;32.40;14.40;;;;;;;-4.56;100.00;101717.50;108846;1257;75176;-80
2023/01/12 21:10:54;;;;;;;25.90;12.40;;;;;;;-4.54;100.00;101716.66;108844;1255;71220;-81
2023/01/12 21:13:42;;;;;;;31.80;12.70;;;;;;;-4.54;100.00;101718.77;108889;1257;74034;-80
2023/01/12 21:16:30;;;;;;;26.50;11.50;;;;;;;-4.55;100.00;101715.98;108859;1257;60052;-81
2023/01/12 21:19:17;;;;;;;25.40;10.10;;;;;;;-4.55;100.00;101718.48;108896;1257;61666;-80
2023/01/12 21:22:05;;;;;;;28.60;9.90;;;;;;;-4.52;100.00;101711.28;108984;1256;75669;-81
2023/01/12 21:24:52;;;;;;;21.70;9.90;;;;;;;-4.49;100.00;101714.25;108914;1257;70080;-80
2023/01/12 21:27:40;;;;;;;24.00;11.00;;;;;;;-4.50;100.00;101708.10;108980;1256;73317;-80
2023/01/12 21:30:27;;;;;;;25.20;10.80;;;;;;;-4.50;100.00;101710.05;108959;1256;61561;-80
2023/01/12 21:33:16;;;;;;;22.80;10.50;;;;;;;-4.50;100.00;101712.55;108965;1253;62719;-80
2023/01/12 21:36:04;;;;;;;24.10;9.90;;;;;;;-4.50;100.00;101712.17;109272;1251;75203;-81
2023/01/12 21:38:52;;;;;;;22.80;8.60;;;;;;;-4.49;100.00;101713.48;109320;1254;71174;-80
2023/01/12 21:44:45;;;;;;;15.40;7.90;;;;;;;-4.49;100.00;101717.59;109188;1253;62204;-82
2023/01/12 21:47:33;;;;;;;17.80;7.10;;;;;;;-4.50;100.00;101713.63;109211;1253;61318;-80
2023/01/12 21:50:21;;;;;;;14.70;6.30;;;;;;;-4.54;100.00;101713.25;109225;1257;75082;-81
2023/01/12 21:53:12;;;;;;;12.10;4.90;;;;;;;-4.56;100.00;101711.69;109211;1253;68680;-80
2023/01/12 21:56:01;;;;;;;14.50;6.20;;;;;;;-4.56;100.00;101710.60;109184;1254;73634;-81
